KTHV Airport Information

Runway Information
Runway 17 Length 5188 ft width 100 ft
Elevation 470 ft Threshold 800 ft Heading 155
Runway 35 Length 5188 ft Width 100 ft
Elevation 480 ft Threshold 740 ft Heading 335
Airport Frequencies
Type A/D Name HARRISBURG Frequency 124.1 MHZ
Type ASOS Name ASOS Frequency 119.275 MHZ
Type CLD Name CLNC DEL Frequency 121.65 MHZ
Type UNIC Name CTAF/UNICO Frequency 123 MHZ
Airport Navaids
Airport Weather Information & NOTAM
ADDS - METARS form results

(0214 UTC 16 December 2018)
Data provider http://aviationweather.gov/metar/data/
 
METAR text: KTHV 160153Z AUTO 04009KT 3SM -RA BR BKN019 OVC029 08/07 A3001 RMK AO2 SLP168 P0008 T00830072
Conditions at: KTHV (YORK , PA, US) observed 0153 UTC 16 December 2018
Temperature: 8.3°C (47°F)
Dewpoint: 7.2°C (45°F) [RH = 93%]
Pressure (altimeter): 30.01 inches Hg (1016.3 mb)
[Sea-level pressure: 1016.8 mb]
Winds: from the NE (40 degrees) at 10 MPH (9 knots; 4.6 m/s)
Visibility: 3 miles ( 5 km)
Ceiling: 1900 feet AGL
Clouds: broken clouds at 1900 feet AGL
overcast cloud deck at 2900 feet AGL
Weather: -RA BR  (light rain, mist)